createdAt,value
2022-12-28T00:01:25.166Z,6.50
2022-12-28T00:03:53.039Z,8.77
2022-12-28T00:06:22.455Z,5.80
2022-12-28T00:08:49.625Z,9.25
2022-12-28T00:11:26.393Z,6.82
2022-12-28T00:13:59.955Z,3.20
2022-12-28T00:16:36.076Z,3.75
2022-12-28T00:19:06.768Z,3.50
2022-12-28T00:21:34.377Z,3.47
2022-12-28T00:24:02.207Z,5.30
2022-12-28T00:26:31.489Z,4.32
2022-12-28T00:29:04.080Z,4.25
2022-12-28T00:31:33.118Z,3.33
2022-12-28T00:34:00.143Z,3.17
2022-12-28T00:37:09.948Z,3.78
2022-12-28T00:39:14.008Z,3.53
2022-12-28T00:41:40.941Z,3.97
2022-12-28T00:44:07.927Z,3.63
2022-12-28T00:46:35.092Z,3.78
2022-12-28T00:49:02.025Z,3.45
2022-12-28T00:51:28.958Z,5.78
2022-12-28T00:53:55.971Z,3.40
2022-12-28T00:56:23.517Z,3.67
2022-12-28T00:58:50.859Z,3.70
2022-12-28T01:01:20.922Z,4.20
2022-12-28T01:03:48.767Z,4.55
2022-12-28T01:06:19.352Z,3.45
2022-12-28T01:08:46.899Z,3.80
2022-12-28T01:11:20.648Z,4.35
2022-12-28T01:13:49.665Z,4.28
2022-12-28T01:16:19.592Z,4.43
2022-12-28T01:18:47.409Z,3.83
2022-12-28T01:21:20.555Z,4.50
2022-12-28T01:23:48.571Z,3.90
2022-12-28T01:26:16.321Z,4.82
2022-12-28T01:28:43.301Z,4.30
2022-12-28T01:31:12.677Z,5.15
2022-12-28T01:33:39.670Z,4.15
2022-12-28T01:36:20.736Z,3.70
2022-12-28T01:38:48.355Z,4.82
2022-12-28T01:41:17.791Z,3.70
2022-12-28T01:43:45.909Z,4.57
2022-12-28T01:46:37.604Z,4.75
2022-12-28T01:49:16.170Z,5.93
2022-12-28T01:52:03.998Z,4.47
2022-12-28T01:54:36.434Z,5.13
2022-12-28T01:57:04.002Z,4.88
2022-12-28T01:59:37.636Z,6.70
2022-12-28T02:02:05.014Z,4.88
2022-12-28T02:04:32.066Z,6.57
2022-12-28T02:06:58.992Z,5.70
2022-12-28T02:09:43.697Z,7.00
2022-12-28T02:12:15.129Z,6.03
2022-12-28T02:14:44.099Z,6.68
2022-12-28T02:17:13.514Z,5.95
2022-12-28T02:19:48.916Z,6.80
2022-12-28T02:22:40.325Z,6.50
2022-12-28T02:25:14.030Z,6.75
2022-12-28T02:27:59.635Z,7.97
2022-12-28T02:30:26.838Z,7.18
2022-12-28T02:33:17.094Z,7.38
2022-12-28T02:36:04.703Z,7.93
2022-12-28T02:38:46.687Z,7.65
2022-12-28T02:41:25.397Z,8.13
2022-12-28T02:43:54.007Z,7.35
2022-12-28T02:46:43.063Z,6.85
2022-12-28T02:49:54.311Z,8.90
2022-12-28T02:52:37.320Z,6.97
2022-12-28T02:55:45.403Z,7.78
2022-12-28T02:58:40.364Z,8.95
2022-12-28T03:01:28.648Z,8.05
2022-12-28T03:04:10.553Z,8.43
2022-12-28T03:06:56.144Z,7.75
2022-12-28T03:09:48.856Z,8.13
2022-12-28T03:12:28.052Z,7.95
2022-12-28T03:15:04.057Z,8.45
2022-12-28T03:17:51.616Z,7.75
2022-12-28T03:20:43.298Z,7.78
2022-12-28T03:23:32.980Z,7.20
2022-12-28T03:26:21.533Z,6.03
2022-12-28T03:29:08.646Z,6.60
2022-12-28T03:31:36.839Z,6.07
2022-12-28T03:34:07.609Z,6.68
2022-12-28T03:36:48.214Z,6.90
2022-12-28T03:39:33.563Z,8.20
2022-12-28T03:42:48.066Z,6.53
2022-12-28T03:45:44.883Z,6.43
2022-12-28T03:48:11.631Z,6.22
2022-12-28T03:50:42.789Z,6.55
2022-12-28T03:53:10.317Z,5.28
2022-12-28T03:55:40.668Z,6.10
2022-12-28T03:58:07.799Z,5.32
2022-12-28T04:00:34.818Z,5.28
2022-12-28T04:03:01.779Z,6.05
2022-12-28T04:05:28.852Z,5.32
2022-12-28T04:07:55.730Z,5.53
2022-12-28T04:10:22.772Z,4.45
2022-12-28T04:12:53.956Z,5.07
2022-12-28T04:15:20.921Z,5.38
2022-12-28T04:17:47.797Z,6.40
2022-12-28T04:20:14.826Z,4.85
2022-12-28T04:22:41.701Z,5.15
2022-12-28T04:25:08.971Z,5.35
2022-12-28T04:27:35.924Z,6.82
2022-12-28T04:30:02.988Z,4.75
2022-12-28T04:32:29.936Z,5.60
2022-12-28T04:34:56.839Z,6.70
2022-12-28T04:37:23.777Z,4.32
2022-12-28T04:39:54.663Z,4.50
2022-12-28T04:42:23.774Z,5.30
2022-12-28T04:44:50.670Z,4.43
2022-12-28T04:47:17.724Z,5.53
2022-12-28T04:49:44.640Z,4.55
2022-12-28T04:52:11.572Z,5.20
2022-12-28T04:54:38.588Z,4.82
2022-12-28T04:57:05.527Z,5.07
2022-12-28T04:59:32.431Z,4.75
2022-12-28T05:01:59.534Z,5.28
2022-12-28T05:04:26.628Z,6.07
2022-12-28T05:06:53.515Z,6.13
2022-12-28T05:09:20.531Z,6.20
2022-12-28T05:11:47.429Z,7.13
2022-12-28T05:14:14.903Z,7.63
2022-12-28T05:16:42.586Z,7.28
2022-12-28T05:19:09.551Z,8.10
2022-12-28T05:21:36.756Z,7.25
2022-12-28T05:24:03.918Z,6.32
2022-12-28T05:26:30.839Z,7.72
2022-12-28T05:28:59.008Z,6.32
2022-12-28T05:31:27.053Z,5.82
2022-12-28T05:33:54.846Z,5.32
2022-12-28T05:36:26.913Z,5.75
2022-12-28T05:38:54.976Z,5.78
2022-12-28T05:41:25.099Z,7.53
2022-12-28T05:43:52.446Z,5.88
2022-12-28T05:46:24.437Z,6.65
2022-12-28T05:48:51.656Z,6.85
2022-12-28T05:51:20.430Z,7.20
2022-12-28T05:53:47.712Z,7.10
2022-12-28T05:56:20.560Z,7.93
2022-12-28T05:58:52.617Z,8.90
2022-12-28T06:01:21.799Z,8.82
2022-12-28T06:03:56.679Z,8.65
2022-12-28T06:06:24.472Z,8.40
2022-12-28T06:08:51.470Z,8.40
2022-12-28T06:11:21.528Z,9.43
2022-12-28T06:13:48.547Z,8.15
2022-12-28T06:16:19.831Z,8.88
2022-12-28T06:18:47.128Z,9.48
2022-12-28T06:21:17.240Z,9.20
2022-12-28T06:23:45.550Z,9.43
2022-12-28T06:26:15.081Z,9.95
2022-12-28T06:28:42.793Z,9.35
2022-12-28T06:31:13.639Z,9.27
2022-12-28T06:33:41.061Z,9.77
2022-12-28T06:36:20.319Z,9.60
2022-12-28T06:38:49.294Z,9.85
2022-12-28T06:41:17.401Z,10.13
2022-12-28T06:43:45.042Z,9.80
2022-12-28T06:46:12.685Z,9.43
2022-12-28T06:48:40.627Z,10.68
2022-12-28T06:51:16.221Z,10.02
2022-12-28T06:53:44.108Z,10.25
2022-12-28T06:56:13.934Z,9.35
2022-12-28T06:58:41.589Z,9.75
2022-12-28T07:01:29.555Z,10.50
2022-12-28T07:03:58.496Z,10.65
2022-12-28T07:06:28.091Z,10.38
2022-12-28T07:09:07.373Z,9.38
2022-12-28T07:11:34.789Z,10.48
2022-12-28T07:14:01.794Z,9.63
2022-12-28T07:18:56.340Z,9.63
2022-12-28T07:21:25.858Z,9.52
2022-12-28T07:23:55.139Z,9.57
2022-12-28T07:26:25.218Z,9.73
2022-12-28T07:28:54.207Z,9.52
2022-12-28T07:31:27.283Z,9.82
2022-12-28T07:33:56.035Z,10.23
2022-12-28T07:36:24.421Z,10.40
2022-12-28T07:38:51.982Z,11.30
2022-12-28T07:41:30.507Z,9.95
2022-12-28T07:43:57.507Z,8.80
2022-12-28T07:46:27.484Z,8.75
2022-12-28T07:48:54.905Z,9.23
2022-12-28T07:51:36.355Z,9.70
2022-12-28T07:54:04.697Z,10.10
2022-12-28T08:02:39.328Z,10.65
2022-12-28T08:05:06.803Z,10.65
2022-12-28T08:11:24.705Z,9.68
2022-12-28T08:13:54.132Z,10.85
2022-12-28T08:16:22.684Z,10.77
2022-12-28T08:18:50.227Z,10.80
2022-12-28T08:21:22.662Z,12.00
2022-12-28T08:27:38.742Z,11.35
2022-12-28T08:30:06.731Z,11.05
2022-12-28T08:32:33.771Z,13.27
2022-12-28T08:35:00.791Z,11.27
2022-12-28T08:37:27.788Z,12.27
2022-12-28T08:39:54.747Z,10.60
2022-12-28T08:46:05.631Z,9.50
2022-12-28T08:48:34.010Z,12.45
2022-12-28T08:51:10.054Z,11.15
2022-12-28T08:53:37.895Z,9.93
2022-12-28T08:56:13.778Z,11.65
2022-12-28T09:02:36.088Z,12.35
2022-12-28T09:05:03.186Z,11.88
2022-12-28T09:07:30.090Z,11.18
2022-12-28T09:09:57.047Z,11.18
2022-12-28T09:12:24.024Z,11.88
2022-12-28T09:14:50.914Z,12.93
2022-12-28T09:17:17.984Z,11.48
2022-12-28T09:19:44.866Z,10.88
2022-12-28T09:22:11.766Z,11.65
2022-12-28T09:24:38.683Z,11.27
2022-12-28T09:27:05.614Z,12.05
2022-12-28T09:29:32.486Z,11.18
2022-12-28T09:32:01.549Z,11.02
2022-12-28T09:34:37.673Z,11.52
2022-12-28T09:37:06.907Z,11.00
2022-12-28T09:39:33.865Z,10.45
2022-12-28T09:42:21.852Z,10.65
2022-12-28T09:45:02.289Z,11.85
2022-12-28T09:47:41.214Z,11.52
2022-12-28T09:50:17.319Z,11.32
2022-12-28T09:52:49.894Z,10.93
2022-12-28T09:55:18.923Z,11.45
2022-12-28T09:57:51.687Z,9.85
2022-12-28T10:00:21.950Z,10.43
2022-12-28T10:03:02.254Z,12.27
2022-12-28T10:05:29.938Z,11.38
2022-12-28T10:07:59.395Z,10.40
2022-12-28T10:10:27.726Z,11.38
2022-12-28T10:12:55.517Z,10.50
2022-12-28T10:15:24.884Z,10.70
2022-12-28T10:17:51.831Z,9.98
2022-12-28T10:20:21.090Z,10.38
2022-12-28T10:22:56.313Z,10.57
2022-12-28T10:25:26.055Z,10.77
2022-12-28T10:27:53.741Z,10.27
2022-12-28T10:30:27.379Z,10.57
2022-12-28T10:33:03.685Z,10.05
2022-12-28T10:35:42.349Z,9.90
2022-12-28T10:38:26.243Z,9.60
2022-12-28T10:41:03.332Z,8.40
2022-12-28T10:43:39.838Z,9.02
2022-12-28T10:46:15.046Z,9.90
2022-12-28T10:48:54.076Z,9.82
2022-12-28T10:51:26.600Z,8.73
2022-12-28T10:53:58.226Z,11.07
2022-12-28T10:56:25.226Z,10.23
2022-12-28T10:58:54.526Z,9.45
2022-12-28T11:01:28.541Z,8.93
2022-12-28T11:03:55.620Z,8.65
2022-12-28T11:06:31.119Z,8.20
2022-12-28T11:09:03.949Z,7.93
2022-12-28T11:11:31.018Z,8.45
2022-12-28T11:24:36.157Z,7.38
2022-12-28T11:27:06.416Z,7.25
2022-12-28T11:29:33.400Z,7.43
2022-12-28T11:32:08.767Z,7.38
2022-12-28T11:34:37.703Z,7.18
2022-12-28T11:37:04.631Z,7.03
2022-12-28T11:39:33.211Z,7.18
2022-12-28T11:44:50.205Z,6.45
2022-12-28T11:47:17.118Z,6.70
2022-12-28T11:49:46.259Z,6.72
2022-12-28T11:52:27.464Z,6.57
2022-12-28T11:54:58.889Z,5.88
2022-12-28T11:57:34.975Z,5.95
2022-12-28T12:00:21.934Z,5.55
2022-12-28T12:03:00.871Z,6.00
2022-12-28T12:05:39.909Z,6.05
2022-12-28T12:08:14.141Z,6.22
2022-12-28T12:10:43.108Z,5.78
2022-12-28T12:13:25.361Z,6.30
2022-12-28T12:16:06.972Z,5.70
2022-12-28T12:18:49.244Z,5.85
2022-12-28T12:21:44.491Z,5.82
2022-12-28T12:26:55.513Z,5.85
2022-12-28T12:29:52.035Z,5.80
2022-12-28T12:32:26.978Z,6.78
2022-12-28T12:35:01.955Z,6.07
2022-12-28T12:37:38.110Z,5.93
2022-12-28T12:40:16.991Z,6.90
2022-12-28T12:42:49.578Z,5.80
2022-12-28T12:45:59.680Z,6.20
2022-12-28T12:49:07.226Z,5.93
2022-12-28T12:51:59.054Z,5.93
2022-12-28T12:54:35.648Z,5.63
2022-12-28T12:57:21.450Z,5.78
2022-12-28T13:00:12.069Z,7.22
2022-12-28T13:02:50.999Z,6.10
2022-12-28T13:05:25.149Z,5.82
2022-12-28T13:07:55.392Z,6.38
2022-12-28T13:10:37.918Z,7.03
2022-12-28T13:13:05.936Z,6.20
2022-12-28T13:15:34.062Z,6.68
2022-12-28T13:18:43.696Z,5.82
2022-12-28T13:21:01.824Z,6.13
2022-12-28T13:23:31.092Z,5.70
2022-12-28T13:26:02.927Z,5.70
2022-12-28T13:28:37.148Z,5.25
2022-12-28T13:31:20.733Z,6.32
2022-12-28T13:34:02.631Z,6.00
2022-12-28T13:36:29.697Z,4.80
2022-12-28T13:39:02.853Z,5.20
2022-12-28T13:41:31.246Z,5.28
2022-12-28T13:44:19.230Z,5.78
2022-12-28T13:46:52.213Z,6.30
2022-12-28T13:49:21.427Z,5.78
2022-12-28T13:51:53.331Z,5.38
2022-12-28T13:54:22.855Z,5.28
2022-12-28T13:56:49.834Z,5.40
2022-12-28T13:59:19.561Z,5.78
2022-12-28T14:01:50.440Z,5.55
2022-12-28T14:07:14.739Z,5.50
2022-12-28T14:09:42.150Z,5.25
2022-12-28T14:12:09.540Z,5.40
2022-12-28T14:14:36.999Z,5.60
2022-12-28T14:17:04.732Z,5.60
2022-12-28T14:19:31.951Z,5.28
2022-12-28T14:21:58.931Z,5.25
2022-12-28T14:24:26.808Z,5.80
2022-12-28T14:26:58.072Z,5.72
2022-12-28T14:29:35.790Z,5.43
2022-12-28T14:32:06.688Z,5.70
2022-12-28T14:34:38.967Z,5.78
2022-12-28T14:37:09.895Z,5.45
2022-12-28T14:39:44.058Z,6.00
2022-12-28T14:42:27.620Z,5.97
2022-12-28T14:44:56.845Z,6.72
2022-12-28T14:47:46.426Z,5.90
2022-12-28T14:50:25.890Z,5.32
2022-12-28T14:53:10.641Z,5.43
2022-12-28T14:58:19.123Z,5.68
2022-12-28T15:00:59.663Z,5.65
2022-12-28T15:03:29.384Z,5.63
2022-12-28T15:05:59.929Z,5.90
2022-12-28T15:08:29.961Z,6.30
2022-12-28T15:10:59.519Z,5.53
2022-12-28T15:13:27.650Z,5.80
2022-12-28T15:15:56.578Z,6.28
2022-12-28T15:18:23.937Z,6.15
2022-12-28T15:20:51.165Z,6.32
2022-12-28T15:23:18.225Z,6.30
2022-12-28T15:25:45.181Z,5.72
2022-12-28T15:28:12.111Z,6.35
2022-12-28T15:30:43.375Z,5.72
2022-12-28T15:33:11.190Z,5.53
2022-12-28T15:35:38.526Z,6.32
2022-12-28T15:38:05.551Z,5.63
2022-12-28T15:40:32.530Z,6.60
2022-12-28T15:42:59.582Z,6.68
2022-12-28T15:45:26.600Z,6.07
2022-12-28T15:47:54.457Z,5.82
2022-12-28T15:50:21.946Z,5.85
2022-12-28T15:52:49.089Z,6.22
2022-12-28T15:55:16.197Z,5.93
2022-12-28T15:57:44.999Z,6.78
2022-12-28T16:00:18.761Z,7.07
2022-12-28T16:02:46.745Z,6.47
2022-12-28T16:05:14.863Z,6.10
2022-12-28T16:07:41.983Z,6.40
2022-12-28T16:10:09.392Z,6.05
2022-12-28T16:12:36.381Z,6.43
2022-12-28T16:15:03.671Z,6.35
2022-12-28T16:17:30.802Z,8.48
2022-12-28T16:19:57.820Z,6.40
2022-12-28T16:22:24.787Z,6.43
2022-12-28T16:24:51.783Z,6.70
2022-12-28T16:27:19.013Z,6.07
2022-12-28T16:29:46.404Z,5.57
2022-12-28T16:32:13.329Z,5.95
2022-12-28T16:34:40.313Z,5.88
2022-12-28T16:37:07.616Z,5.38
2022-12-28T16:39:34.793Z,5.68
2022-12-28T16:42:01.773Z,6.30
2022-12-28T16:44:29.528Z,6.55
2022-12-28T16:46:59.937Z,5.82
2022-12-28T16:49:27.859Z,6.93
2022-12-28T16:51:55.043Z,6.63
2022-12-28T16:54:24.056Z,6.75
2022-12-28T16:56:51.625Z,6.47
2022-12-28T16:59:21.569Z,5.80
2022-12-28T17:01:48.820Z,6.68
2022-12-28T17:04:16.025Z,6.65
2022-12-28T17:06:44.034Z,6.75
2022-12-28T17:09:10.980Z,6.38
2022-12-28T17:11:37.880Z,6.80
2022-12-28T17:14:12.585Z,6.90
2022-12-28T17:16:39.982Z,6.88
2022-12-28T17:19:07.144Z,6.60
2022-12-28T17:21:34.545Z,6.30
2022-12-28T17:24:02.275Z,7.57
2022-12-28T17:26:29.389Z,6.95
2022-12-28T17:28:57.202Z,7.72
2022-12-28T17:31:24.537Z,7.63
2022-12-28T17:33:54.250Z,6.65
2022-12-28T17:36:22.126Z,8.10
2022-12-28T17:38:49.110Z,7.05
2022-12-28T17:41:18.995Z,7.53
2022-12-28T17:43:57.422Z,7.00
2022-12-28T17:46:26.926Z,6.47
2022-12-28T17:48:58.818Z,6.40
2022-12-28T17:51:26.722Z,6.63
2022-12-28T17:53:55.212Z,6.57
2022-12-28T17:56:22.217Z,6.30
2022-12-28T17:58:53.301Z,6.22
2022-12-28T18:01:20.513Z,5.85
2022-12-28T18:03:47.683Z,6.78
2022-12-28T18:06:14.690Z,6.57
2022-12-28T18:08:41.930Z,5.38
2022-12-28T18:11:11.294Z,5.13
2022-12-28T18:13:39.453Z,5.00
2022-12-28T18:16:07.891Z,5.38
2022-12-28T18:18:35.188Z,5.65
2022-12-28T18:21:06.073Z,5.18
2022-12-28T18:23:34.360Z,5.38
2022-12-28T18:26:02.284Z,5.28
2022-12-28T18:28:29.463Z,5.55
2022-12-28T18:31:01.480Z,5.18
2022-12-28T18:33:29.783Z,4.88
2022-12-28T18:35:56.891Z,4.80
2022-12-28T18:38:23.835Z,5.00
2022-12-28T18:40:56.107Z,5.03
2022-12-28T18:43:23.739Z,5.10
2022-12-28T18:46:02.089Z,5.20
2022-12-28T18:48:30.114Z,5.00
2022-12-28T18:50:58.744Z,4.95
2022-12-28T18:53:27.323Z,4.78
2022-12-28T18:55:58.273Z,5.60
2022-12-28T18:58:26.690Z,5.40
2022-12-28T19:00:54.009Z,4.85
2022-12-28T19:03:21.142Z,5.80
2022-12-28T19:06:02.165Z,4.93
2022-12-28T19:08:30.624Z,4.82
2022-12-28T19:10:57.544Z,5.22
2022-12-28T19:13:24.463Z,4.85
2022-12-28T19:15:52.446Z,4.85
2022-12-28T19:18:19.918Z,4.97
2022-12-28T19:20:46.820Z,4.80
2022-12-28T19:23:13.909Z,5.28
2022-12-28T19:25:40.805Z,4.35
2022-12-28T19:28:08.353Z,4.53
2022-12-28T19:30:35.318Z,4.70
2022-12-28T19:33:02.333Z,4.22
2022-12-28T19:35:29.238Z,3.95
2022-12-28T19:37:56.172Z,4.20
2022-12-28T19:40:23.077Z,4.50
2022-12-28T19:42:49.972Z,5.25
2022-12-28T19:45:18.252Z,5.22
2022-12-28T19:47:45.179Z,4.85
2022-12-28T19:50:12.095Z,4.00
2022-12-28T19:52:39.073Z,4.97
2022-12-28T19:55:06.305Z,4.15
2022-12-28T19:57:33.253Z,3.75
2022-12-28T20:00:00.172Z,3.97
2022-12-28T20:02:27.159Z,4.25
2022-12-28T20:04:54.608Z,4.38
2022-12-28T20:07:21.512Z,3.92
2022-12-28T20:09:50.791Z,4.25
2022-12-28T20:12:19.451Z,4.40
2022-12-28T20:14:46.368Z,4.40
2022-12-28T20:17:13.336Z,4.60
2022-12-28T20:19:40.366Z,4.25
2022-12-28T20:22:07.252Z,4.50
2022-12-28T20:24:34.285Z,3.90
2022-12-28T20:27:01.839Z,4.00
2022-12-28T20:29:29.037Z,4.03
2022-12-28T20:31:56.001Z,3.50
2022-12-28T20:34:23.199Z,3.95
2022-12-28T20:36:50.385Z,3.78
2022-12-28T20:39:17.247Z,4.55
2022-12-28T20:42:02.660Z,3.58
2022-12-28T20:44:32.535Z,4.40
2022-12-28T20:47:02.004Z,3.58
2022-12-28T20:49:29.693Z,4.00
2022-12-28T20:51:56.632Z,4.45
2022-12-28T20:54:23.837Z,4.50
2022-12-28T20:56:55.310Z,3.65
2022-12-28T20:59:24.936Z,4.10
2022-12-28T21:01:52.281Z,4.90
2022-12-28T21:04:19.404Z,3.80
2022-12-28T21:06:46.402Z,4.10
2022-12-28T21:09:13.374Z,4.93
2022-12-28T21:11:40.257Z,5.28
2022-12-28T21:14:07.361Z,4.70
2022-12-28T21:16:34.515Z,4.43
2022-12-28T21:19:01.480Z,5.38
2022-12-28T21:21:28.434Z,4.60
2022-12-28T21:23:55.391Z,5.80
2022-12-28T21:26:22.554Z,5.72
2022-12-28T21:28:49.695Z,5.78
2022-12-28T21:31:16.890Z,6.03
2022-12-28T21:33:43.990Z,5.88
2022-12-28T21:36:15.691Z,5.85
2022-12-28T21:38:44.609Z,6.45
2022-12-28T21:41:17.254Z,5.63
2022-12-28T21:43:44.155Z,5.30
2022-12-28T21:46:15.423Z,5.70
2022-12-28T21:48:42.690Z,5.57
2022-12-28T21:51:31.457Z,5.95
2022-12-28T21:53:59.877Z,5.70
2022-12-28T21:56:27.172Z,5.38
2022-12-28T21:58:54.464Z,6.40
2022-12-28T22:01:40.157Z,5.88
2022-12-28T22:04:26.463Z,5.90
2022-12-28T22:06:53.371Z,5.65
2022-12-28T22:09:38.613Z,5.90
2022-12-28T22:12:24.518Z,6.45
2022-12-28T22:15:11.370Z,5.90
2022-12-28T22:17:38.440Z,6.07
2022-12-28T22:20:06.054Z,6.28
2022-12-28T22:22:33.040Z,6.47
2022-12-28T22:24:59.993Z,6.03
2022-12-28T22:27:27.074Z,6.15
2022-12-28T22:29:55.451Z,6.47
2022-12-28T22:32:23.158Z,7.00
2022-12-28T22:34:50.218Z,6.57
2022-12-28T22:37:17.587Z,6.68
2022-12-28T22:39:44.552Z,6.47
2022-12-28T22:42:11.440Z,7.10
2022-12-28T22:44:38.743Z,7.05
2022-12-28T22:47:05.708Z,7.07
2022-12-28T22:49:32.662Z,6.70
2022-12-28T22:51:59.606Z,6.97
2022-12-28T22:54:26.722Z,7.00
2022-12-28T22:56:53.680Z,6.72
2022-12-28T22:59:20.626Z,7.05
2022-12-28T23:01:48.449Z,7.53
2022-12-28T23:04:16.275Z,6.55
2022-12-28T23:06:43.176Z,7.55
2022-12-28T23:09:10.258Z,6.97
2022-12-28T23:11:37.229Z,7.47
2022-12-28T23:14:37.220Z,6.72
2022-12-28T23:17:08.644Z,7.18
2022-12-28T23:19:54.279Z,7.10
2022-12-28T23:22:45.446Z,7.35
2022-12-28T23:25:36.490Z,6.72
2022-12-28T23:28:05.873Z,6.88
2022-12-28T23:30:33.031Z,6.38
2022-12-28T23:33:01.113Z,6.43
2022-12-28T23:35:28.200Z,8.13
2022-12-28T23:37:55.112Z,7.20
2022-12-28T23:40:23.250Z,5.90
2022-12-28T23:42:50.423Z,6.30
2022-12-28T23:45:18.694Z,6.47
2022-12-28T23:47:46.541Z,6.85
2022-12-28T23:50:15.263Z,6.38
2022-12-28T23:52:42.819Z,7.05
2022-12-28T23:55:10.593Z,7.07
2022-12-28T23:57:38.232Z,7.10
